createdAt,value
2018-04-02T00:01:40.026Z,82.52
2018-04-02T00:04:05.882Z,82.45
2018-04-02T00:06:31.783Z,82.19
2018-04-02T00:08:57.724Z,82.48
2018-04-02T00:11:23.569Z,82.25
2018-04-02T00:13:49.436Z,82.31
2018-04-02T00:16:15.354Z,81.78
2018-04-02T00:18:41.305Z,82.26
2018-04-02T00:21:07.160Z,81.99
2018-04-02T00:23:33.036Z,82.32
2018-04-02T00:25:58.884Z,82.02
2018-04-02T00:28:24.749Z,82.10
2018-04-02T00:30:50.669Z,81.79
2018-04-02T00:33:16.531Z,82.03
2018-04-02T00:35:42.391Z,81.79
2018-04-02T00:38:08.312Z,81.97
2018-04-02T00:40:34.148Z,81.98
2018-04-02T00:42:59.992Z,82.09
2018-04-02T00:45:25.897Z,82.76
2018-04-02T00:47:51.745Z,82.50
2018-04-02T00:50:17.610Z,82.94
2018-04-02T00:52:43.496Z,82.75
2018-04-02T00:55:09.346Z,82.83
2018-04-02T00:57:35.210Z,82.30
2018-04-02T01:00:01.126Z,83.11
2018-04-02T01:02:26.968Z,82.23
2018-04-02T01:04:52.839Z,82.48
2018-04-02T01:07:18.729Z,82.36
2018-04-02T01:09:44.605Z,82.35
2018-04-02T01:12:10.451Z,82.73
2018-04-02T01:14:36.348Z,82.91
2018-04-02T01:17:02.204Z,82.49
2018-04-02T01:19:28.104Z,82.71
2018-04-02T01:21:54.009Z,82.95
2018-04-02T01:24:19.876Z,82.64
2018-04-02T01:26:45.732Z,82.64
2018-04-02T01:29:11.656Z,82.37
2018-04-02T01:31:37.509Z,82.27
2018-04-02T01:34:03.360Z,82.02
2018-04-02T01:36:29.250Z,82.24
2018-04-02T01:38:55.129Z,82.14
2018-04-02T01:41:21.001Z,82.20
2018-04-02T01:43:46.907Z,82.06
2018-04-02T01:46:12.773Z,82.02
2018-04-02T01:48:38.621Z,81.61
2018-04-02T01:51:04.525Z,81.63
2018-04-02T01:53:30.380Z,81.92
2018-04-02T01:55:56.229Z,82.04
2018-04-02T01:58:22.117Z,81.90
2018-04-02T02:00:47.993Z,81.86
2018-04-02T02:03:13.856Z,81.51
2018-04-02T02:05:45.025Z,81.87
2018-04-02T02:08:10.885Z,81.76
2018-04-02T02:10:36.737Z,82.04
2018-04-02T02:13:02.641Z,82.27
2018-04-02T02:15:28.505Z,82.14
2018-04-02T02:17:54.374Z,82.23
2018-04-02T02:20:20.422Z,82.42
2018-04-02T02:22:46.309Z,82.63
2018-04-02T02:25:12.185Z,82.82
2018-04-02T02:27:38.072Z,82.67
2018-04-02T02:30:03.966Z,82.99
2018-04-02T02:32:29.832Z,83.42
2018-04-02T02:34:55.784Z,83.37
2018-04-02T02:37:21.621Z,83.54
2018-04-02T02:39:47.495Z,83.07
2018-04-02T02:42:13.397Z,83.06
2018-04-02T02:44:39.284Z,83.00
2018-04-02T02:47:05.180Z,83.52
2018-04-02T02:49:31.110Z,83.45
2018-04-02T02:51:56.974Z,83.12
2018-04-02T02:54:22.832Z,83.14
2018-04-02T02:56:48.710Z,83.24
2018-04-02T02:59:14.577Z,83.48
2018-04-02T03:01:40.445Z,83.42
2018-04-02T03:04:06.341Z,83.65
2018-04-02T03:06:32.204Z,83.65
2018-04-02T03:08:58.062Z,83.90
2018-04-02T03:11:23.981Z,84.03
2018-04-02T03:13:49.857Z,84.25
2018-04-02T03:16:15.715Z,83.83
2018-04-02T03:18:41.622Z,83.94
2018-04-02T03:21:07.537Z,84.17
2018-04-02T03:23:33.397Z,84.15
2018-04-02T03:25:59.309Z,84.20
2018-04-02T03:28:25.168Z,84.35
2018-04-02T03:30:51.045Z,84.50
2018-04-02T03:33:16.956Z,84.78
2018-04-02T03:35:42.817Z,84.87
2018-04-02T03:38:08.686Z,85.25
2018-04-02T03:40:34.592Z,85.13
2018-04-02T03:43:00.453Z,85.20
2018-04-02T03:45:26.304Z,85.26
2018-04-02T03:47:52.192Z,85.65
2018-04-02T03:50:18.070Z,85.61
2018-04-02T03:52:43.941Z,85.74
2018-04-02T03:55:09.845Z,85.84
2018-04-02T03:57:35.710Z,85.80
2018-04-02T04:00:01.578Z,86.04
2018-04-02T04:02:27.486Z,86.06
2018-04-02T04:04:53.341Z,86.16
2018-04-02T04:07:19.217Z,86.14
2018-04-02T04:09:45.165Z,86.12
2018-04-02T04:12:11.017Z,86.29
2018-04-02T04:14:36.857Z,86.18
2018-04-02T04:17:02.772Z,86.46
2018-04-02T04:19:28.616Z,86.49
2018-04-02T04:21:54.512Z,86.63
2018-04-02T04:24:20.431Z,86.74
2018-04-02T04:26:46.312Z,87.16
2018-04-02T04:29:12.148Z,87.10
2018-04-02T04:31:38.050Z,86.77
2018-04-02T04:34:05.005Z,86.99
2018-04-02T04:36:30.851Z,87.25
2018-04-02T04:38:56.756Z,87.28
2018-04-02T04:41:22.612Z,86.94
2018-04-02T04:43:48.493Z,87.09
2018-04-02T04:46:14.406Z,87.24
2018-04-02T04:48:40.272Z,87.41
2018-04-02T04:51:06.132Z,87.19
2018-04-02T04:53:32.027Z,87.37
2018-04-02T04:55:57.889Z,87.68
2018-04-02T04:58:23.748Z,87.26
2018-04-02T05:00:49.648Z,87.42
2018-04-02T05:03:15.524Z,87.63
2018-04-02T05:05:41.401Z,87.66
2018-04-02T05:08:07.328Z,87.43
2018-04-02T05:10:33.178Z,87.36
2018-04-02T05:12:59.058Z,87.03
2018-04-02T05:15:24.963Z,87.01
2018-04-02T05:17:50.827Z,86.71
2018-04-02T05:20:16.685Z,86.65
2018-04-02T05:22:42.645Z,86.73
2018-04-02T05:25:08.514Z,86.43
2018-04-02T05:27:34.427Z,87.05
2018-04-02T05:30:00.309Z,86.66
2018-04-02T05:32:26.165Z,86.31
2018-04-02T05:34:52.029Z,86.07
2018-04-02T05:37:17.917Z,86.18
2018-04-02T05:39:43.949Z,85.99
2018-04-02T05:42:09.829Z,86.16
2018-04-02T05:44:35.741Z,86.08
2018-04-02T05:47:01.600Z,85.66
2018-04-02T05:49:27.748Z,86.13
2018-04-02T05:51:53.676Z,85.22
2018-04-02T05:54:19.612Z,85.21
2018-04-02T05:56:45.472Z,85.70
2018-04-02T05:59:11.377Z,85.52
2018-04-02T06:01:37.699Z,85.21
2018-04-02T06:04:03.681Z,85.09
2018-04-02T06:06:29.579Z,85.35
2018-04-02T06:08:55.444Z,85.08
2018-04-02T06:11:21.519Z,85.28
2018-04-02T06:13:47.444Z,84.45
2018-04-02T06:16:13.315Z,84.67
2018-04-02T06:18:39.247Z,84.27
2018-04-02T06:21:05.338Z,84.83
2018-04-02T06:23:31.266Z,84.56
2018-04-02T06:25:57.124Z,84.11
2018-04-02T06:28:23.121Z,83.69
2018-04-02T06:30:49.086Z,84.26
2018-04-02T06:33:14.957Z,83.66
2018-04-02T06:35:40.858Z,83.37
2018-04-02T06:38:06.725Z,83.44
2018-04-02T06:40:32.572Z,82.83
2018-04-02T06:42:59.516Z,83.19
2018-04-02T06:45:25.374Z,82.99
2018-04-02T06:47:51.220Z,82.72
2018-04-02T06:50:17.741Z,82.04
2018-04-02T06:52:43.725Z,81.64
2018-04-02T06:55:09.660Z,82.11
2018-04-02T06:57:35.669Z,81.46
2018-04-02T07:00:01.557Z,81.89
2018-04-02T07:02:27.459Z,81.90
2018-04-02T07:04:53.404Z,82.10
2018-04-02T07:07:19.350Z,80.55
2018-04-02T07:09:45.284Z,80.24
2018-04-02T07:12:11.547Z,80.14
2018-04-02T07:14:37.517Z,80.18
2018-04-02T07:17:03.468Z,79.16
2018-04-02T07:19:29.442Z,79.08
2018-04-02T07:21:55.300Z,78.29
2018-04-02T07:24:21.229Z,78.50
2018-04-02T07:26:47.144Z,78.20
2018-04-02T07:29:13.043Z,78.07
2018-04-02T07:31:38.943Z,77.42
2018-04-02T07:34:04.868Z,77.58
2018-04-02T07:36:30.725Z,76.30
2018-04-02T07:38:57.339Z,75.79
2018-04-02T07:41:23.274Z,75.31
2018-04-02T07:43:49.153Z,75.11
2018-04-02T07:46:15.000Z,74.56
2018-04-02T07:48:40.900Z,73.47
2018-04-02T07:51:06.754Z,73.22
2018-04-02T07:53:32.600Z,74.11
2018-04-02T07:55:58.523Z,73.90
2018-04-02T07:58:24.360Z,72.47
2018-04-02T08:00:50.218Z,72.70
2018-04-02T08:03:16.105Z,70.59
2018-04-02T08:05:41.945Z,70.25
2018-04-02T08:08:07.784Z,70.05
2018-04-02T08:10:33.729Z,69.58
2018-04-02T08:12:59.595Z,68.58
2018-04-02T08:15:25.481Z,67.94
2018-04-02T08:17:51.380Z,69.64
2018-04-02T08:20:17.257Z,68.86
2018-04-02T08:22:43.137Z,68.06
2018-04-02T08:25:09.171Z,66.43
2018-04-02T08:27:35.017Z,66.73
2018-04-02T08:30:00.868Z,66.89
2018-04-02T08:32:26.823Z,67.39
2018-04-02T08:34:52.656Z,66.70
2018-04-02T08:37:18.512Z,67.33
2018-04-02T08:39:44.421Z,65.59
2018-04-02T08:42:11.112Z,63.73
2018-04-02T08:44:37.414Z,65.11
2018-04-02T08:47:03.493Z,63.71
2018-04-02T08:49:29.345Z,62.00
2018-04-02T08:51:55.217Z,59.91
2018-04-02T08:54:21.142Z,61.31
2018-04-02T08:56:47.018Z,60.36
2018-04-02T08:59:12.881Z,60.22
2018-04-02T09:01:38.893Z,58.34
2018-04-02T09:04:04.745Z,56.95
2018-04-02T09:06:30.597Z,57.92
2018-04-02T09:08:56.506Z,57.11
2018-04-02T09:11:22.358Z,55.32
2018-04-02T09:13:48.222Z,58.79
2018-04-02T09:16:14.181Z,53.26
2018-04-02T09:18:40.049Z,52.64
2018-04-02T09:21:05.935Z,51.39
2018-04-02T09:23:31.851Z,51.19
2018-04-02T09:25:57.790Z,50.83
2018-04-02T09:28:23.666Z,51.01
2018-04-02T09:30:49.693Z,50.39
2018-04-02T09:33:15.571Z,47.39
2018-04-02T09:35:41.440Z,46.53
2018-04-02T09:38:07.363Z,46.18
2018-04-02T09:40:33.235Z,44.92
2018-04-02T09:42:59.097Z,44.99
2018-04-02T09:45:25.000Z,42.64
2018-04-02T09:47:50.857Z,42.94
2018-04-02T09:50:16.712Z,42.50
2018-04-02T09:52:42.613Z,42.15
2018-04-02T09:55:08.505Z,42.51
2018-04-02T09:57:34.367Z,40.99
2018-04-02T10:00:00.264Z,40.79
2018-04-02T10:02:26.140Z,41.61
2018-04-02T10:04:55.100Z,41.36
2018-04-02T10:07:20.950Z,42.10
2018-04-02T10:09:46.817Z,41.96
2018-04-02T10:12:12.736Z,43.16
2018-04-02T10:14:38.680Z,42.83
2018-04-02T10:17:04.693Z,45.57
2018-04-02T10:19:30.570Z,43.28
2018-04-02T10:21:56.479Z,44.36
2018-04-02T10:24:22.341Z,44.28
2018-04-02T10:26:48.259Z,41.90
2018-04-02T10:29:14.250Z,41.19
2018-04-02T10:31:40.069Z,44.64
2018-04-02T10:34:05.933Z,39.89
2018-04-02T10:36:31.839Z,39.24
2018-04-02T10:38:57.701Z,39.60
2018-04-02T10:41:23.556Z,39.48
2018-04-02T10:43:49.476Z,40.53
2018-04-02T10:46:15.336Z,42.48
2018-04-02T10:48:41.216Z,40.42
2018-04-02T10:51:07.125Z,38.62
2018-04-02T10:53:32.990Z,40.43
2018-04-02T10:55:58.871Z,38.82
2018-04-02T10:58:24.772Z,36.24
2018-04-02T11:00:50.652Z,37.02
2018-04-02T11:03:16.521Z,36.64
2018-04-02T11:05:42.448Z,38.24
2018-04-02T11:08:08.349Z,35.46
2018-04-02T11:10:34.209Z,37.03
2018-04-02T11:13:00.107Z,36.01
2018-04-02T11:15:25.990Z,36.85
2018-04-02T11:17:51.870Z,34.97
2018-04-02T11:20:17.815Z,35.31
2018-04-02T11:22:43.692Z,35.17
2018-04-02T11:25:09.576Z,37.94
2018-04-02T11:27:35.551Z,37.06
2018-04-02T11:30:01.430Z,34.84
2018-04-02T11:32:27.309Z,35.20
2018-04-02T11:34:53.225Z,37.33
2018-04-02T11:37:19.080Z,34.86
2018-04-02T11:39:44.946Z,35.70
2018-04-02T11:42:10.853Z,36.49
2018-04-02T11:44:36.735Z,36.69
2018-04-02T11:47:02.617Z,36.50
2018-04-02T11:49:28.535Z,36.23
2018-04-02T11:51:54.413Z,38.61
2018-04-02T11:54:20.285Z,35.99
2018-04-02T11:56:46.181Z,37.73
2018-04-02T11:59:12.089Z,36.19
2018-04-02T12:01:37.982Z,36.80
2018-04-02T12:04:03.898Z,37.71
2018-04-02T12:06:29.885Z,39.11
2018-04-02T12:08:55.755Z,39.45
2018-04-02T12:11:21.654Z,39.70
2018-04-02T12:13:47.537Z,39.94
2018-04-02T12:16:13.437Z,40.48
2018-04-02T12:18:39.355Z,40.00
2018-04-02T12:21:05.245Z,39.72
2018-04-02T12:23:31.093Z,39.40
2018-04-02T12:25:57.044Z,40.24
2018-04-02T12:28:22.996Z,41.04
2018-04-02T12:30:48.889Z,40.70
2018-04-02T12:33:14.797Z,39.04
2018-04-02T12:35:40.675Z,39.86
2018-04-02T12:38:06.541Z,40.07
2018-04-02T12:40:32.647Z,40.54
2018-04-02T12:42:58.536Z,42.22
2018-04-02T12:45:24.411Z,42.72
2018-04-02T12:47:50.348Z,38.15
2018-04-02T12:50:16.257Z,39.94
2018-04-02T12:52:42.199Z,41.35
2018-04-02T12:55:08.119Z,41.45
2018-04-02T12:57:34.009Z,40.23
2018-04-02T12:59:59.971Z,40.08
2018-04-02T13:02:25.864Z,40.59
2018-04-02T13:04:51.837Z,40.24
2018-04-02T13:07:17.689Z,39.22
2018-04-02T13:09:43.937Z,40.64
2018-04-02T13:12:09.815Z,40.57
2018-04-02T13:14:35.676Z,40.67
2018-04-02T13:17:01.691Z,41.02
2018-04-02T13:19:27.665Z,41.78
2018-04-02T13:21:53.521Z,43.06
2018-04-02T13:24:19.447Z,42.66
2018-04-02T13:26:45.313Z,43.34
2018-04-02T13:29:11.271Z,42.71
2018-04-02T13:31:37.253Z,45.34
2018-04-02T13:34:03.099Z,43.70
2018-04-02T13:36:28.977Z,43.60
2018-04-02T13:38:54.889Z,43.40
2018-04-02T13:41:20.851Z,44.30
2018-04-02T13:43:46.779Z,43.45
2018-04-02T13:46:12.697Z,44.40
2018-04-02T13:48:38.574Z,45.49
2018-04-02T13:51:04.440Z,44.11
2018-04-02T13:53:30.418Z,42.27
2018-04-02T13:55:56.282Z,43.03
2018-04-02T13:58:22.270Z,41.92
2018-04-02T14:00:48.176Z,42.49
2018-04-02T14:03:14.050Z,43.02
2018-04-02T14:05:39.934Z,43.55
2018-04-02T14:08:05.854Z,43.00
2018-04-02T14:10:31.841Z,41.97
2018-04-02T14:12:57.712Z,40.28
2018-04-02T14:15:23.635Z,42.08
2018-04-02T14:17:49.513Z,42.18
2018-04-02T14:20:15.407Z,43.26
2018-04-02T14:22:41.354Z,41.53
2018-04-02T14:25:07.242Z,41.86
2018-04-02T14:27:33.146Z,42.52
2018-04-02T14:29:59.064Z,41.83
2018-04-02T14:32:24.953Z,43.81
2018-04-02T14:34:50.869Z,42.57
2018-04-02T14:37:16.802Z,44.13
2018-04-02T14:39:42.704Z,41.62
2018-04-02T14:42:08.671Z,41.80
2018-04-02T14:44:34.597Z,43.96
2018-04-02T14:47:00.533Z,41.41
2018-04-02T14:49:26.483Z,41.89
2018-04-02T14:51:52.418Z,41.78
2018-04-02T14:54:18.421Z,42.02
2018-04-02T14:56:44.284Z,42.46
2018-04-02T14:59:10.198Z,41.68
2018-04-02T15:01:36.058Z,43.18
2018-04-02T15:04:01.955Z,43.91
2018-04-02T15:06:27.906Z,43.13
2018-04-02T15:08:53.801Z,44.06
2018-04-02T15:11:19.694Z,42.79
2018-04-02T15:13:45.605Z,41.59
2018-04-02T15:16:11.592Z,44.12
2018-04-02T15:18:37.482Z,43.70
2018-04-02T15:21:03.404Z,43.79
2018-04-02T15:23:29.285Z,43.28
2018-04-02T15:25:55.273Z,43.65
2018-04-02T15:28:21.226Z,43.92
2018-04-02T15:30:47.089Z,44.92
2018-04-02T15:33:12.967Z,45.19
2018-04-02T15:35:38.927Z,44.93
2018-04-02T15:38:04.790Z,44.86
2018-04-02T15:40:30.673Z,44.41
2018-04-02T15:42:56.614Z,44.33
2018-04-02T15:45:23.437Z,47.51
2018-04-02T15:47:49.319Z,45.33
2018-04-02T15:50:15.213Z,43.19
2018-04-02T15:52:41.318Z,44.21
2018-04-02T15:55:07.245Z,44.68
2018-04-02T15:57:33.145Z,42.04
2018-04-02T15:59:59.022Z,42.66
2018-04-02T16:02:24.884Z,43.44
2018-04-02T16:04:50.791Z,43.85
2018-04-02T16:07:16.819Z,42.41
2018-04-02T16:09:42.690Z,42.91
2018-04-02T16:12:08.605Z,45.84
2018-04-02T16:14:34.459Z,45.60
2018-04-02T16:17:00.362Z,46.52
2018-04-02T16:19:26.440Z,45.02
2018-04-02T16:21:52.334Z,44.62
2018-04-02T16:24:18.207Z,45.77
2018-04-02T16:26:44.117Z,46.71
2018-04-02T16:29:10.075Z,46.59
2018-04-02T16:31:35.946Z,47.28
2018-04-02T16:34:01.855Z,49.89
2018-04-02T16:36:27.783Z,48.03
2018-04-02T16:38:53.716Z,49.46
2018-04-02T16:41:19.667Z,50.26
2018-04-02T16:43:46.150Z,50.88
2018-04-02T16:46:12.057Z,51.42
2018-04-02T16:48:38.006Z,52.04
2018-04-02T16:51:03.919Z,51.20
2018-04-02T16:53:29.793Z,51.40
2018-04-02T16:55:55.991Z,53.36
2018-04-02T16:58:21.890Z,52.79
2018-04-02T17:00:47.858Z,53.28
2018-04-02T17:03:13.911Z,54.22
2018-04-02T17:05:39.821Z,55.32
2018-04-02T17:08:06.002Z,55.50
2018-04-02T17:10:31.900Z,54.31
2018-04-02T17:12:57.821Z,54.32
2018-04-02T17:15:23.727Z,54.13
2018-04-02T17:17:49.964Z,54.54
2018-04-02T17:20:15.895Z,54.63
2018-04-02T17:22:41.815Z,54.82
2018-04-02T17:25:07.904Z,54.71
2018-04-02T17:27:34.226Z,54.13
2018-04-02T17:30:00.212Z,55.84
2018-04-02T17:32:26.378Z,58.28
2018-04-02T17:34:52.313Z,59.35
2018-04-02T17:37:18.222Z,59.24
2018-04-02T17:39:44.628Z,58.17
2018-04-02T17:42:10.496Z,57.52
2018-04-02T17:44:36.363Z,57.36
2018-04-02T17:47:02.328Z,57.67
2018-04-02T17:49:28.210Z,59.56
2018-04-02T17:51:54.472Z,60.46
2018-04-02T17:54:20.465Z,61.39
2018-04-02T17:56:46.468Z,60.29
2018-04-02T17:59:12.359Z,60.12
2018-04-02T18:01:38.409Z,60.46
2018-04-02T18:04:04.282Z,60.89
2018-04-02T18:06:30.159Z,59.25
2018-04-02T18:08:56.129Z,59.43
2018-04-02T18:11:22.065Z,59.74
2018-04-02T18:13:47.941Z,60.19
2018-04-02T18:16:13.873Z,59.72
2018-04-02T18:18:39.745Z,60.46
2018-04-02T18:21:05.824Z,60.36
2018-04-02T18:23:32.069Z,59.88
2018-04-02T18:25:57.934Z,60.67
2018-04-02T18:28:24.283Z,58.73
2018-04-02T18:30:50.217Z,60.37
2018-04-02T18:33:16.341Z,60.67
2018-04-02T18:35:42.197Z,60.12
2018-04-02T18:38:08.123Z,60.45
2018-04-02T18:40:34.003Z,60.18
2018-04-02T18:42:59.901Z,60.00
2018-04-02T18:45:25.946Z,60.86
2018-04-02T18:47:51.806Z,59.31
2018-04-02T18:50:17.670Z,59.40
2018-04-02T18:52:43.602Z,59.18
2018-04-02T18:55:09.468Z,59.12
2018-04-02T18:57:35.531Z,58.89
2018-04-02T19:00:01.428Z,58.80
2018-04-02T19:02:27.268Z,57.86
2018-04-02T19:04:53.181Z,57.97
2018-04-02T19:07:19.097Z,58.70
2018-04-02T19:09:45.004Z,58.22
2018-04-02T19:12:10.864Z,58.98
2018-04-02T19:14:36.760Z,59.09
2018-04-02T19:17:02.630Z,59.47
2018-04-02T19:19:28.476Z,58.98
2018-04-02T19:21:54.373Z,60.29
2018-04-02T19:24:20.220Z,59.66
2018-04-02T19:26:46.072Z,59.92
2018-04-02T19:29:11.957Z,59.41
2018-04-02T19:31:38.176Z,59.22
2018-04-02T19:34:04.024Z,59.53
2018-04-02T19:36:29.931Z,60.08
2018-04-02T19:38:55.812Z,60.47
2018-04-02T19:41:21.660Z,60.32
2018-04-02T19:43:47.560Z,60.54
2018-04-02T19:46:13.944Z,60.91
2018-04-02T19:48:39.825Z,61.47
2018-04-02T19:51:05.751Z,61.54
2018-04-02T19:53:31.611Z,61.67
2018-04-02T19:55:57.472Z,62.10
2018-04-02T19:58:23.359Z,62.13
2018-04-02T20:00:49.243Z,62.42
2018-04-02T20:03:15.109Z,62.01
2018-04-02T20:05:41.013Z,62.51
2018-04-02T20:08:06.940Z,62.77
2018-04-02T20:10:32.857Z,63.02
2018-04-02T20:12:58.998Z,62.75
2018-04-02T20:15:24.903Z,62.64
2018-04-02T20:17:50.786Z,63.16
2018-04-02T20:20:16.782Z,62.62
2018-04-02T20:22:42.653Z,64.04
2018-04-02T20:25:08.522Z,63.77
2018-04-02T20:27:34.415Z,64.22
2018-04-02T20:30:00.270Z,64.20
2018-04-02T20:32:26.150Z,64.02
2018-04-02T20:34:52.037Z,63.13
2018-04-02T20:37:17.880Z,63.80
2018-04-02T20:39:43.728Z,63.31
2018-04-02T20:42:09.800Z,63.08
2018-04-02T20:44:35.645Z,63.41
2018-04-02T20:47:01.554Z,63.00
2018-04-02T20:49:27.483Z,62.82
2018-04-02T20:51:53.372Z,62.89
2018-04-02T20:54:19.238Z,62.69
2018-04-02T20:56:45.148Z,62.82
2018-04-02T20:59:11.005Z,62.65
2018-04-02T21:01:36.974Z,62.87
2018-04-02T21:04:02.968Z,62.74
2018-04-02T21:06:28.883Z,62.81
2018-04-02T21:08:54.773Z,62.19
2018-04-02T21:11:20.748Z,62.12
2018-04-02T21:13:46.601Z,62.80
2018-04-02T21:16:12.450Z,62.82
2018-04-02T21:18:38.349Z,62.82
2018-04-02T21:21:04.196Z,62.84
2018-04-02T21:23:30.049Z,63.14
2018-04-02T21:25:55.955Z,63.74
2018-04-02T21:28:22.149Z,63.49
2018-04-02T21:30:48.045Z,63.58
2018-04-02T21:33:13.941Z,63.30
2018-04-02T21:35:39.809Z,62.63
2018-04-02T21:38:05.659Z,63.37
2018-04-02T21:40:31.544Z,62.69
2018-04-02T21:42:57.414Z,63.08
2018-04-02T21:45:23.341Z,62.93
2018-04-02T21:47:49.236Z,63.19
2018-04-02T21:50:15.093Z,63.13
2018-04-02T21:52:40.953Z,63.33
2018-04-02T21:55:06.854Z,63.65
2018-04-02T21:57:32.716Z,63.56
2018-04-02T21:59:58.606Z,63.55
2018-04-02T22:02:24.584Z,63.87
2018-04-02T22:04:50.449Z,63.99
2018-04-02T22:07:19.193Z,63.67
2018-04-02T22:09:45.327Z,63.85
2018-04-02T22:12:11.208Z,64.09
2018-04-02T22:14:37.077Z,64.58
2018-04-02T22:17:02.981Z,64.37
2018-04-02T22:19:28.838Z,65.12
2018-04-02T22:21:54.741Z,64.80
2018-04-02T22:24:20.658Z,65.17
2018-04-02T22:26:46.541Z,65.19
2018-04-02T22:29:12.412Z,65.34
2018-04-02T22:31:38.321Z,65.94
2018-04-02T22:34:04.222Z,66.54
2018-04-02T22:36:30.123Z,66.24
2018-04-02T22:38:56.009Z,65.99
2018-04-02T22:41:21.889Z,66.53
2018-04-02T22:43:47.757Z,66.62
2018-04-02T22:46:13.663Z,66.59
2018-04-02T22:48:39.537Z,66.49
2018-04-02T22:51:05.438Z,66.78
2018-04-02T22:53:31.353Z,66.41
2018-04-02T22:55:57.231Z,67.32
2018-04-02T22:58:23.098Z,67.00
2018-04-02T23:00:49.016Z,67.39
2018-04-02T23:03:14.949Z,67.08
2018-04-02T23:05:40.801Z,66.89
2018-04-02T23:08:06.713Z,66.59
2018-04-02T23:10:32.593Z,67.05
2018-04-02T23:12:58.454Z,67.39
2018-04-02T23:15:24.363Z,67.66
2018-04-02T23:17:50.249Z,67.87
2018-04-02T23:20:16.280Z,67.79
2018-04-02T23:22:51.446Z,67.61
2018-04-02T23:25:17.326Z,67.59
2018-04-02T23:27:43.184Z,67.98
2018-04-02T23:30:09.149Z,68.10
2018-04-02T23:32:35.025Z,67.84
2018-04-02T23:35:00.888Z,68.07
2018-04-02T23:37:26.796Z,67.99
2018-04-02T23:39:52.661Z,68.10
2018-04-02T23:42:18.508Z,67.75
2018-04-02T23:44:44.405Z,68.03
2018-04-02T23:47:10.261Z,67.25
2018-04-02T23:49:36.116Z,67.24
2018-04-02T23:52:02.024Z,66.63
2018-04-02T23:54:27.909Z,66.64
2018-04-02T23:56:53.766Z,66.28
2018-04-02T23:59:19.669Z,65.35
